Belfast Municipal Airport


Codes: KBST/
Name: Belfast Municipal Airport
City: Belfast
Country: United States
Elevation: 198 ft.

Photos at Belfast Municipal Airport


   Photos courtesy of SpottingLog. You can add your own sightings and photos by signing up for a free trial today.



No photos found.

Weather at Belfast Municipal Airport


Time (UTC)DescriptionTempratureWindCloud coverageVisibilityPressureHumidity
16-Jun-2024 00:00Clear Sky18°C7 mph, N4%10000m1016hPa55%
16-Jun-2024 03:00Few Clouds17°C9 mph, NW19%10000m1017hPa56%
16-Jun-2024 06:00Scattered Clouds13°C4 mph, NW31%10000m1019hPa65%
16-Jun-2024 09:00Clear Sky8°C4 mph, NW0%10000m1022hPa71%
16-Jun-2024 12:00Clear Sky14°C4 mph, N0%10000m1024hPa53%
16-Jun-2024 15:00Clear Sky19°C2 mph, N0%10000m1024hPa41%
16-Jun-2024 18:00Clear Sky21°C4 mph, S4%10000m1022hPa36%
16-Jun-2024 21:00Broken Clouds19°C7 mph, S76%10000m1022hPa45%
17-Jun-2024 00:00Broken Clouds14°C7 mph, SW83%10000m1022hPa71%
17-Jun-2024 03:00Scattered Clouds11°C4 mph, SW40%10000m1023hPa80%
17-Jun-2024 06:00Broken Clouds12°C4 mph, SW70%10000m1023hPa78%
17-Jun-2024 09:00Overcast Clouds12°C4 mph, SW100%10000m1022hPa83%
17-Jun-2024 12:00Overcast Clouds15°C7 mph, SW100%10000m1022hPa72%
17-Jun-2024 15:00Overcast Clouds18°C9 mph, S100%10000m1022hPa59%
17-Jun-2024 18:00Overcast Clouds17°C11 mph, S100%10000m1020hPa65%
17-Jun-2024 21:00Overcast Clouds16°C9 mph, S99%10000m1020hPa74%
18-Jun-2024 00:00Broken Clouds16°C9 mph, S75%10000m1019hPa80%
18-Jun-2024 03:00Overcast Clouds15°C2 mph, SE99%10000m1020hPa85%
18-Jun-2024 06:00Broken Clouds13°C2 mph, E71%10000m1020hPa97%
18-Jun-2024 09:00Scattered Clouds13°C2 mph, NE44%10000m1021hPa98%
18-Jun-2024 12:00Broken Clouds19°C2 mph, E61%10000m1021hPa79%
18-Jun-2024 15:00Overcast Clouds22°C7 mph, SE89%4856m1022hPa69%
18-Jun-2024 18:00Overcast Clouds23°C7 mph, SE88%4825m1022hPa66%
18-Jun-2024 21:00Broken Clouds21°C9 mph, SE81%4976m1022hPa75%
19-Jun-2024 00:00Broken Clouds16°C4 mph, SE75%4959m1022hPa96%
19-Jun-2024 03:00Broken Clouds16°C2 mph, N59%0m1023hPa98%
19-Jun-2024 06:00Scattered Clouds16°C2 mph, N49%4824m1022hPa98%
19-Jun-2024 09:00Broken Clouds15°C2 mph, SE53%4822m1022hPa99%
19-Jun-2024 12:00Broken Clouds21°C0 mph, SE57%5342m1023hPa82%
19-Jun-2024 15:00Light Rain27°C4 mph, SE91%4820m1023hPa65%
19-Jun-2024 18:00Overcast Clouds26°C9 mph, SE88%4850m1021hPa66%
19-Jun-2024 21:00Overcast Clouds25°C9 mph, SE98%9609m1020hPa72%
20-Jun-2024 00:00Light Rain21°C4 mph, S99%9673m1020hPa93%
20-Jun-2024 03:00Light Rain20°C2 mph, SW94%10000m1020hPa94%
20-Jun-2024 06:00Light Rain21°C2 mph, W97%4515m1019hPa90%
20-Jun-2024 09:00Light Rain20°C2 mph, W100%9629m1019hPa93%
20-Jun-2024 12:00Overcast Clouds24°C4 mph, W100%9444m1020hPa87%
20-Jun-2024 15:00Overcast Clouds26°C4 mph, NW100%10000m1020hPa74%
20-Jun-2024 18:00Overcast Clouds25°C4 mph, W100%10000m1019hPa72%
20-Jun-2024 21:00Light Rain28°C7 mph, SW62%10000m1017hPa60%